Current | Forecast
Updated: 7:00 AM +08 on October 17, 2017
Observed at Sibu, Malaysia
Temperature 23°C
Humidity 94%
Dew Point 22°C
Wind Variable at 4 km/h
Pressure 1010 hPa (Steady)
Conditions Mostly Cloudy
Visibility 10.0 kilometers
UV 0 out of 16
Clouds (FEW) : 487 m
Mostly Cloudy (BKN) : 4572 m
Yesterday's Maximum 30°C
Yesterday's Minimum 24°C approx.
Yesterday's Cooling Degree Days 16 approx.
Sunrise6:16 AM +08
Sunset6:20 PM +08
Moon Rise4:10 AM +08
Moon Set4:34 PM +08
Moon PhaseMoon Phase
Waning Crescent
Raw METARMETAR WBGS 162300Z VRB02KT 9999 FEW016 BKN150 23/22 Q1010


Monday
. High: 91° F.
Tuesday
. High: 93° F.
Wednesday
. High: 93° F.
Thursday
. High: 89° F.
Friday
. High: 93° F.
Saturday
. High: 93° F.
Sunday
. High: 91° F.
Monday
. High: 93° F.

Units: English | Metric

Find the Weather for any City, State or Zipcode, or Country:

U.S. State List | Severe Weather | Tropical Storms | Ski Conditions
United States | Canada | Central America | South America | Asia | Europe | Australia | Africa | Islands

Weather Underground

© Copyright 2017
The Weather Company, LLC